Airport ICAO


09:06 UTC

0°C

Clear skies


An affordable passengers' Moving Map for your aircraft. Made for the iPad and the iPhone
More information here

LFPG Charles De Gaulle


Paris FRANCE   VFR CAVOK


METAR LFPG 180900Z 14004KT CAVOK 00/M02 Q1020 NOSIG 0h06min

TAF LFPG 180500Z 1806/1912 VRB03KT CAVOK TX04/1814Z TNM01/1903Z BECMG 1810/1812 15005KT PROB30 TEMPO 1909/1912 -SN BKN016 4h06min





NOTAMS

OPEN